createdAt,value
2023-03-04T00:00:47.977Z,101730.75
2023-03-04T00:03:18.177Z,101726.63
2023-03-04T00:05:49.432Z,101728.63
2023-03-04T00:08:19.474Z,101742.38
2023-03-04T00:10:49.320Z,101744.34
2023-03-04T00:13:20.651Z,101751.28
2023-03-04T00:16:09.156Z,101757.63
2023-03-04T00:19:01.629Z,101753.25
2023-03-04T00:21:32.317Z,101762.34
2023-03-04T00:24:02.359Z,101764.28
2023-03-04T00:26:32.244Z,101766.50
2023-03-04T00:29:02.143Z,101767.56
2023-03-04T00:31:49.849Z,101765.94
2023-03-04T00:34:20.109Z,101775.84
2023-03-04T00:36:50.122Z,101780.56
2023-03-04T00:39:20.448Z,101786.59
2023-03-04T00:41:51.337Z,101793.22
2023-03-04T00:44:39.426Z,101793.25
2023-03-04T00:49:56.823Z,101813.84
2023-03-04T00:52:26.937Z,101809.72
2023-03-04T00:54:56.949Z,101821.84
2023-03-04T00:57:27.014Z,101822.69
2023-03-04T00:59:56.906Z,101818.34
2023-03-04T01:02:27.276Z,101829.31
2023-03-04T01:04:57.390Z,101832.06
2023-03-04T01:07:27.460Z,101834.78
2023-03-04T01:09:57.482Z,101835.34
2023-03-04T01:12:27.663Z,101837.88
2023-03-04T01:14:59.100Z,101843.72
2023-03-04T01:17:29.122Z,101845.63
2023-03-04T01:19:59.712Z,101857.72
2023-03-04T01:22:31.473Z,101857.69
2023-03-04T01:25:13.237Z,101862.94
2023-03-04T01:27:43.331Z,101860.19
2023-03-04T01:30:31.891Z,101869.50
2023-03-04T01:33:02.792Z,101874.22
2023-03-04T01:35:32.851Z,101880.56
2023-03-04T01:40:51.285Z,101890.53
2023-03-04T01:43:31.048Z,101906.47
2023-03-04T01:46:01.750Z,101898.75
2023-03-04T01:48:36.256Z,101903.72
2023-03-04T01:51:15.310Z,101896.56
2023-03-04T01:53:48.522Z,101906.44
2023-03-04T01:56:31.227Z,101906.47
2023-03-04T01:59:21.854Z,101914.16
2023-03-04T02:02:04.688Z,101921.03
2023-03-04T02:04:37.327Z,101920.75
2023-03-04T02:07:08.258Z,101923.22
2023-03-04T02:09:40.431Z,101924.88
2023-03-04T02:12:10.674Z,101927.00
2023-03-04T02:14:41.910Z,101931.72
2023-03-04T02:17:15.850Z,101934.47
2023-03-04T02:20:09.700Z,101937.78
2023-03-04T02:22:45.932Z,101941.34
2023-03-04T02:25:23.246Z,101945.47
2023-03-04T02:27:54.153Z,101947.94
2023-03-04T02:30:27.606Z,101950.16
2023-03-04T02:32:58.019Z,101953.19
2023-03-04T02:38:17.908Z,101954.25
2023-03-04T02:40:52.103Z,101959.19
2023-03-04T02:43:22.926Z,101952.88
2023-03-04T02:45:54.617Z,101956.69
2023-03-04T02:48:43.353Z,101953.69
2023-03-04T02:51:14.063Z,101958.59
2023-03-04T02:53:45.791Z,101970.13
2023-03-04T02:56:33.979Z,101963.78
2023-03-04T02:59:04.974Z,101953.31
2023-03-04T03:01:35.192Z,101959.34
2023-03-04T03:04:05.124Z,101949.13
2023-03-04T03:06:37.063Z,101956.53
2023-03-04T03:09:07.619Z,101951.28
2023-03-04T03:11:38.239Z,101957.00
2023-03-04T03:16:55.400Z,101951.28
2023-03-04T03:19:25.533Z,101959.50
2023-03-04T03:21:58.210Z,101960.56
2023-03-04T03:24:29.803Z,101948.34
2023-03-04T03:26:59.866Z,101951.13
2023-03-04T03:29:30.128Z,101953.38
2023-03-04T03:32:00.343Z,101949.75
2023-03-04T03:34:31.853Z,101946.94
2023-03-04T03:37:02.390Z,101949.09
2023-03-04T03:39:32.389Z,101938.34
2023-03-04T03:42:03.209Z,101936.16
2023-03-04T03:44:33.310Z,101938.59
2023-03-04T03:47:03.568Z,101937.75
2023-03-04T03:49:33.583Z,101946.31
2023-03-04T03:52:03.544Z,101930.53
2023-03-04T03:54:33.641Z,101930.78
2023-03-04T03:57:03.520Z,101937.16
2023-03-04T03:59:33.549Z,101926.69
2023-03-04T04:02:03.748Z,101920.59
2023-03-04T04:04:34.053Z,101918.09
2023-03-04T04:07:04.731Z,101908.41
2023-03-04T04:09:35.037Z,101909.50
2023-03-04T04:12:08.658Z,101899.00
2023-03-04T04:14:39.017Z,101901.44
2023-03-04T04:17:13.039Z,101898.34
2023-03-04T04:19:46.326Z,101880.75
2023-03-04T04:22:18.790Z,101876.28
2023-03-04T04:24:51.135Z,101871.03
2023-03-04T04:30:10.422Z,101864.63
2023-03-04T04:32:40.908Z,101853.88
2023-03-04T04:35:11.495Z,101843.13
2023-03-04T04:37:45.678Z,101845.28
2023-03-04T04:40:16.261Z,101839.47
2023-03-04T04:42:46.917Z,101830.63
2023-03-04T04:45:17.005Z,101828.03
2023-03-04T04:47:47.409Z,101821.88
2023-03-04T04:50:17.938Z,101812.75
2023-03-04T04:52:48.569Z,101812.16
2023-03-04T04:55:20.131Z,101799.16
2023-03-04T04:57:50.296Z,101792.72
2023-03-04T06:39:35.665Z,101568.94
2023-03-04T06:42:05.852Z,101569.06
2023-03-04T06:44:35.977Z,101571.75
2023-03-04T06:47:08.127Z,101560.81
2023-03-04T06:49:38.326Z,101555.69
2023-03-04T06:52:08.372Z,101557.78
2023-03-04T06:54:38.320Z,101545.78
2023-03-04T06:57:09.655Z,101544.88
2023-03-04T06:59:39.373Z,101530.25
2023-03-04T07:02:12.681Z,101523.59
2023-03-04T07:04:43.276Z,101522.75
2023-03-04T07:07:15.710Z,101518.34
2023-03-04T07:09:45.773Z,101517.75
2023-03-04T07:12:15.721Z,101502.47
2023-03-04T07:14:45.998Z,101506.38
2023-03-04T07:17:16.678Z,101500.84
2023-03-04T07:19:47.711Z,101489.06
2023-03-04T07:22:17.847Z,101478.16
2023-03-04T07:24:47.881Z,101476.38
2023-03-04T07:27:18.041Z,101471.25
2023-03-04T07:29:49.265Z,101472.56
2023-03-04T07:32:19.474Z,101461.84
2023-03-04T07:34:49.753Z,101455.19
2023-03-04T07:37:19.936Z,101460.06
2023-03-04T07:39:49.983Z,101459.78
2023-03-04T07:45:12.501Z,101439.13
2023-03-04T07:47:43.622Z,101439.63
2023-03-04T07:50:16.965Z,101436.56
2023-03-04T07:52:50.798Z,101434.19
2023-03-04T07:55:21.555Z,101426.72
2023-03-04T07:57:51.634Z,101424.44
2023-03-04T08:00:22.254Z,101430.50
2023-03-04T08:02:52.463Z,101423.84
2023-03-04T08:05:22.900Z,101422.38
2023-03-04T08:07:53.043Z,101415.00
2023-03-04T08:10:23.469Z,101409.34
2023-03-04T08:12:53.536Z,101410.78
2023-03-04T08:15:23.861Z,101404.25
2023-03-04T08:17:54.952Z,101397.91
2023-03-04T08:23:10.323Z,101392.25
2023-03-04T08:25:44.914Z,101388.47
2023-03-04T08:28:15.834Z,101378.75
2023-03-04T08:30:46.248Z,101377.59
2023-03-04T08:33:16.400Z,101375.84
2023-03-04T08:35:46.315Z,101373.28
2023-03-04T08:38:16.243Z,101380.75
2023-03-04T08:40:46.579Z,101371.63
2023-03-04T08:43:16.615Z,101366.19
2023-03-04T08:45:46.852Z,101370.19
2023-03-04T08:48:17.243Z,101363.53
2023-03-04T08:50:49.378Z,101359.22
2023-03-04T08:53:20.757Z,101343.88
2023-03-04T08:56:10.341Z,101351.50
2023-03-04T08:58:40.615Z,101354.28
2023-03-04T09:01:12.803Z,101343.88
2023-03-04T09:03:43.575Z,101347.75
2023-03-04T09:06:17.600Z,101343.22
2023-03-04T09:08:48.488Z,101343.44
2023-03-04T09:11:20.545Z,101351.25
2023-03-04T09:13:50.694Z,101343.03
2023-03-04T09:16:20.677Z,101337.50
2023-03-04T09:18:50.875Z,101347.25
2023-03-04T09:21:20.762Z,101345.81
2023-03-04T09:23:50.685Z,101353.09
2023-03-04T09:26:32.061Z,101349.53
2023-03-04T09:29:02.733Z,101351.34
2023-03-04T09:31:33.106Z,101347.88
2023-03-04T09:34:04.956Z,101347.69
2023-03-04T09:36:35.067Z,101345.44
2023-03-04T09:39:06.814Z,101342.47
2023-03-04T09:41:42.839Z,101354.03
2023-03-04T09:44:39.314Z,101355.06
2023-03-04T09:47:24.403Z,101358.63
2023-03-04T09:50:02.059Z,101347.38
2023-03-04T09:53:02.376Z,101350.75
2023-03-04T09:55:43.582Z,101350.97
2023-03-04T09:58:34.205Z,101349.19
2023-03-04T10:01:06.795Z,101348.22
2023-03-04T10:03:51.396Z,101357.31
2023-03-04T10:06:24.680Z,101351.97
2023-03-04T10:09:08.662Z,101361.53
2023-03-04T10:11:51.573Z,101352.22
2023-03-04T10:14:24.416Z,101357.75
2023-03-04T10:17:03.265Z,101359.38
2023-03-04T10:19:46.575Z,101362.31
2023-03-04T10:22:34.550Z,101361.81
2023-03-04T10:25:17.251Z,101365.94
2023-03-04T10:28:00.718Z,101363.78
2023-03-04T10:30:50.924Z,101367.69
2023-03-04T10:33:27.612Z,101369.63
2023-03-04T10:36:13.556Z,101376.28
2023-03-04T10:38:45.993Z,101374.44
2023-03-04T10:41:22.494Z,101372.19
2023-03-04T10:44:13.739Z,101372.69
2023-03-04T10:46:46.482Z,101371.91
2023-03-04T10:49:37.542Z,101377.94
2023-03-04T10:52:26.110Z,101390.59
2023-03-04T10:54:58.986Z,101388.78
2023-03-04T10:57:32.945Z,101385.31
2023-03-04T11:00:05.291Z,101383.06
2023-03-04T11:02:37.841Z,101385.03
2023-03-04T11:05:20.835Z,101393.63
2023-03-04T11:07:57.698Z,101389.22
2023-03-04T11:10:39.464Z,101395.38
2023-03-04T11:13:24.704Z,101400.78
2023-03-04T11:16:07.020Z,101396.38
2023-03-04T11:18:57.527Z,101402.84
2023-03-04T11:21:34.400Z,101401.31
2023-03-04T11:24:13.329Z,101397.00
2023-03-04T11:26:57.579Z,101404.91
2023-03-04T11:29:33.464Z,101404.78
2023-03-04T11:32:03.593Z,101420.75
2023-03-04T11:34:55.491Z,101424.28
2023-03-04T11:37:50.298Z,101423.06
2023-03-04T11:40:41.209Z,101427.13
2023-03-04T11:43:40.707Z,101431.63
2023-03-04T11:46:34.230Z,101432.66
2023-03-04T11:49:22.478Z,101442.91
2023-03-04T11:52:17.840Z,101442.69
2023-03-04T11:54:53.864Z,101445.38
2023-03-04T11:57:57.668Z,101442.31
2023-03-04T12:00:41.233Z,101449.84
2023-03-04T12:03:29.076Z,101454.41
2023-03-04T12:06:17.487Z,101461.44
2023-03-04T12:08:47.495Z,101460.03
2023-03-04T12:11:41.844Z,101468.50
2023-03-04T12:14:51.366Z,101474.22
2023-03-04T12:17:24.567Z,101471.16
2023-03-04T12:20:19.024Z,101473.63
2023-03-04T12:22:59.108Z,101474.72
2023-03-04T12:25:49.085Z,101492.00
2023-03-04T12:28:28.228Z,101489.78
2023-03-04T12:31:00.862Z,101495.63
2023-03-04T12:34:01.235Z,101494.50
2023-03-04T12:36:42.455Z,101489.16
2023-03-04T12:39:36.245Z,101502.88
2023-03-04T12:42:23.408Z,101499.69
2023-03-04T12:45:24.484Z,101505.13
2023-03-04T12:48:09.609Z,101513.72
2023-03-04T12:50:45.527Z,101517.72
2023-03-04T12:53:19.745Z,101511.75
2023-03-04T12:55:52.320Z,101516.16
2023-03-04T12:58:28.575Z,101515.13
2023-03-04T13:01:04.239Z,101523.13
2023-03-04T13:03:40.728Z,101526.69
2023-03-04T13:06:26.030Z,101533.34
2023-03-04T13:09:05.218Z,101542.16
2023-03-04T13:11:43.873Z,101544.13
2023-03-04T13:14:20.478Z,101547.06
2023-03-04T13:16:52.335Z,101551.56
2023-03-04T13:19:53.654Z,101560.47
2023-03-04T13:22:42.070Z,101562.50
2023-03-04T13:25:38.744Z,101570.50
2023-03-04T13:28:11.928Z,101580.81
2023-03-04T13:31:07.283Z,101576.03
2023-03-04T13:33:37.434Z,101579.78
2023-03-04T13:36:28.270Z,101585.94
2023-03-04T13:39:04.756Z,101589.59
2023-03-04T13:41:50.660Z,101593.59
2023-03-04T13:44:58.409Z,101594.31
2023-03-04T13:47:47.503Z,101604.31
2023-03-04T13:50:37.540Z,101605.56
2023-03-04T13:53:29.596Z,101611.69
2023-03-04T13:56:24.467Z,101615.56
2023-03-04T13:59:09.661Z,101618.69
2023-03-04T14:01:49.470Z,101623.91
2023-03-04T14:04:27.484Z,101630.63
2023-03-04T14:07:02.958Z,101635.44
2023-03-04T14:09:36.415Z,101634.25
2023-03-04T14:12:24.341Z,101638.44
2023-03-04T14:15:01.470Z,101638.44
2023-03-04T14:17:34.745Z,101641.41
2023-03-04T14:20:15.603Z,101635.44
2023-03-04T14:25:51.497Z,101647.44
2023-03-04T14:28:29.637Z,101651.84
2023-03-04T14:31:36.768Z,101650.63
2023-03-04T14:34:05.380Z,101662.59
2023-03-04T14:36:38.493Z,101664.84
2023-03-04T14:39:10.655Z,101662.00
2023-03-04T14:41:47.243Z,101664.31
2023-03-04T14:44:21.038Z,101664.41
2023-03-04T14:47:06.954Z,101670.28
2023-03-04T14:49:42.186Z,101667.72
2023-03-04T14:52:31.042Z,101668.03
2023-03-04T14:55:07.781Z,101665.56
2023-03-04T14:57:39.275Z,101666.41
2023-03-04T15:00:30.084Z,101674.38
2023-03-04T15:03:03.287Z,101677.38
2023-03-04T15:05:36.553Z,101681.88
2023-03-04T15:08:52.538Z,101680.22
2023-03-04T15:11:28.972Z,101672.22
2023-03-04T15:14:04.782Z,101680.50
2023-03-04T15:16:57.594Z,101687.97
2023-03-04T15:19:32.437Z,101679.50
2023-03-04T15:22:10.655Z,101684.19
2023-03-04T15:24:46.642Z,101685.81
2023-03-04T15:27:28.132Z,101689.69
2023-03-04T15:30:01.603Z,101685.22
2023-03-04T15:32:35.373Z,101689.41
2023-03-04T15:35:05.813Z,101697.19
2023-03-04T15:37:36.570Z,101697.41
2023-03-04T15:40:15.634Z,101695.03
2023-03-04T15:42:53.756Z,101709.88
2023-03-04T15:45:36.321Z,101706.22
2023-03-04T15:48:11.468Z,101711.91
2023-03-04T15:50:50.486Z,101708.63
2023-03-04T15:53:34.961Z,101712.19
2023-03-04T15:59:18.645Z,101716.66
2023-03-04T16:01:49.683Z,101702.66
2023-03-04T16:04:20.707Z,101701.09
2023-03-04T16:06:52.766Z,101704.16
2023-03-04T16:09:24.260Z,101703.34
2023-03-04T16:12:00.456Z,101698.94
2023-03-04T16:14:34.559Z,101696.69
2023-03-04T16:17:06.655Z,101697.88
2023-03-04T16:19:36.890Z,101697.88
2023-03-04T16:22:07.546Z,101700.44
2023-03-04T16:24:37.937Z,101698.19
2023-03-04T16:27:20.358Z,101699.00
2023-03-04T16:29:53.819Z,101694.59
2023-03-04T16:32:24.031Z,101696.75
2023-03-04T16:34:57.049Z,101687.66
2023-03-04T16:37:28.785Z,101694.31
2023-03-04T16:39:59.433Z,101687.44
2023-03-04T16:42:34.751Z,101694.59
2023-03-04T16:45:07.033Z,101694.06
2023-03-04T16:47:38.289Z,101686.63
2023-03-04T16:50:08.215Z,101689.38
2023-03-04T16:52:39.428Z,101682.22
2023-03-04T16:55:12.869Z,101679.72
2023-03-04T16:57:43.102Z,101679.72
2023-03-04T17:00:14.281Z,101674.22
2023-03-04T17:02:44.562Z,101674.84
2023-03-04T17:05:23.385Z,101668.19
2023-03-04T17:07:53.698Z,101663.16
2023-03-04T17:10:30.089Z,101657.19
2023-03-04T17:13:00.237Z,101659.38
2023-03-04T17:15:30.406Z,101654.97
2023-03-04T17:18:00.434Z,101652.47
2023-03-04T17:20:30.754Z,101650.81
2023-03-04T17:23:02.445Z,101648.06
2023-03-04T17:25:32.658Z,101635.09
2023-03-04T17:28:02.850Z,101637.94
2023-03-04T17:30:37.302Z,101627.41
2023-03-04T17:33:07.507Z,101630.75
2023-03-04T17:35:40.557Z,101626.06
2023-03-04T17:40:53.159Z,101621.69
2023-03-04T17:43:26.048Z,101618.91
2023-03-04T17:46:06.109Z,101621.16
2023-03-04T17:49:01.419Z,101618.06
2023-03-04T17:51:40.558Z,101621.47
2023-03-04T17:54:12.683Z,101617.28
2023-03-04T17:56:45.699Z,101612.94
2023-03-04T17:59:19.391Z,101609.00
2023-03-04T18:01:51.647Z,101608.47
2023-03-04T18:04:23.240Z,101609.59
2023-03-04T18:06:53.375Z,101613.69
2023-03-04T18:09:23.342Z,101603.25
2023-03-04T18:11:53.655Z,101606.81
2023-03-04T18:14:23.874Z,101605.78
2023-03-04T18:16:53.904Z,101599.66
2023-03-04T18:19:44.959Z,101597.00
2023-03-04T18:22:15.506Z,101596.69
2023-03-04T18:24:48.750Z,101584.81
2023-03-04T18:27:19.004Z,101578.78
2023-03-04T18:29:50.813Z,101577.44
2023-03-04T18:32:21.024Z,101578.28
2023-03-04T18:34:51.425Z,101574.09
2023-03-04T18:37:21.685Z,101568.34
2023-03-04T18:39:51.692Z,101574.16
2023-03-04T18:42:21.986Z,101565.38
2023-03-04T18:44:52.205Z,101566.50
2023-03-04T18:47:22.622Z,101574.16
2023-03-04T18:49:53.949Z,101568.22
2023-03-04T18:52:23.604Z,101570.06
2023-03-04T18:54:54.733Z,101564.53
2023-03-04T18:57:25.040Z,101565.38
2023-03-04T19:00:01.601Z,101559.84
2023-03-04T19:02:37.722Z,101560.97
2023-03-04T19:05:21.263Z,101564.00
2023-03-04T19:07:51.481Z,101552.44
2023-03-04T19:10:22.409Z,101551.06
2023-03-04T19:12:52.823Z,101552.38
2023-03-04T19:15:22.960Z,101542.78
2023-03-04T19:17:52.901Z,101544.41
2023-03-04T19:20:23.089Z,101549.94
2023-03-04T19:25:42.403Z,101537.00
2023-03-04T19:28:13.592Z,101528.47
2023-03-04T19:30:44.428Z,101533.25
2023-03-04T19:33:14.715Z,101530.16
2023-03-04T19:35:47.291Z,101517.81
2023-03-04T19:38:17.436Z,101515.03
2023-03-04T19:40:51.912Z,101515.56
2023-03-04T19:43:22.001Z,101516.56
2023-03-04T19:45:58.697Z,101515.25
2023-03-04T19:48:28.906Z,101510.53
2023-03-04T19:50:59.114Z,101509.22
2023-03-04T19:53:29.907Z,101505.94
2023-03-04T19:55:59.885Z,101510.31
2023-03-04T19:58:29.804Z,101504.81
2023-03-04T20:01:00.179Z,101503.16
2023-03-04T20:03:30.333Z,101495.47
2023-03-04T20:06:11.153Z,101492.44
2023-03-04T20:08:41.046Z,101491.91
2023-03-04T20:11:16.707Z,101484.44
2023-03-04T20:13:47.616Z,101488.84
2023-03-04T20:16:17.660Z,101497.97
2023-03-04T20:18:48.378Z,101484.75
2023-03-04T20:21:19.134Z,101488.34
2023-03-04T20:23:49.610Z,101485.88
2023-03-04T20:26:20.780Z,101482.91
2023-03-04T20:28:53.740Z,101488.13
2023-03-04T20:31:30.680Z,101484.56
2023-03-04T20:34:02.397Z,101492.00
2023-03-04T20:36:33.653Z,101488.44
2023-03-04T20:39:08.288Z,101491.47
2023-03-04T20:41:45.621Z,101491.25
2023-03-04T20:44:15.445Z,101497.28
2023-03-04T20:46:50.052Z,101495.38
2023-03-04T20:49:26.056Z,101492.38
2023-03-04T20:54:44.120Z,101495.66
2023-03-04T20:57:14.778Z,101497.38
2023-03-04T20:59:45.051Z,101486.66
2023-03-04T21:02:17.731Z,101492.47
2023-03-04T21:04:47.826Z,101499.31
2023-03-04T21:07:17.766Z,101489.94
2023-03-04T21:09:47.724Z,101493.28
2023-03-04T21:12:17.742Z,101488.06
2023-03-04T21:14:48.347Z,101486.41
2023-03-04T21:17:18.538Z,101496.34
2023-03-04T21:19:48.668Z,101490.28
2023-03-04T21:22:21.173Z,101496.59
2023-03-04T21:24:51.244Z,101496.91
2023-03-04T21:27:22.303Z,101491.09
2023-03-04T21:29:52.396Z,101499.66
2023-03-04T21:32:27.708Z,101496.38
2023-03-04T22:09:43.978Z,101514.03
2023-03-04T22:12:14.268Z,101518.50
2023-03-04T22:14:44.399Z,101514.91
2023-03-04T22:17:14.348Z,101520.72
2023-03-04T22:19:44.561Z,101519.66
2023-03-04T22:22:23.538Z,101524.75
2023-03-04T22:24:54.448Z,101531.91
2023-03-04T22:27:24.584Z,101528.03
2023-03-04T22:29:54.637Z,101536.31
2023-03-04T22:32:26.062Z,101538.56
2023-03-04T22:34:56.181Z,101548.25
2023-03-04T22:37:26.145Z,101553.59
2023-03-04T22:39:56.249Z,101561.81
2023-03-04T22:42:26.155Z,101562.38
2023-03-04T22:44:57.926Z,101566.25
2023-03-04T22:47:28.166Z,101567.00
2023-03-04T22:49:58.231Z,101565.94
2023-03-04T22:52:28.227Z,101577.50
2023-03-04T22:54:58.299Z,101589.09
2023-03-04T22:58:03.383Z,101585.22
2023-03-04T23:00:34.480Z,101596.56
2023-03-04T23:03:04.741Z,101587.75
2023-03-04T23:05:35.219Z,101593.00
2023-03-04T23:08:05.476Z,101607.03
2023-03-04T23:10:35.638Z,101610.31
2023-03-04T23:13:06.521Z,101611.13
2023-03-04T23:15:36.592Z,101616.41
2023-03-04T23:18:06.803Z,101623.00
2023-03-04T23:20:36.915Z,101630.75
2023-03-04T23:23:06.953Z,101628.53
2023-03-04T23:25:41.170Z,101631.38
2023-03-04T23:28:11.219Z,101640.75
2023-03-04T23:30:41.134Z,101647.06
2023-03-04T23:33:11.070Z,101654.56
2023-03-04T23:35:41.184Z,101664.44
2023-03-04T23:38:11.533Z,101665.31
2023-03-04T23:40:41.955Z,101670.53
2023-03-04T23:43:12.441Z,101668.34
2023-03-04T23:45:42.930Z,101676.38
2023-03-04T23:48:13.239Z,101681.06
2023-03-04T23:50:43.593Z,101690.44
2023-03-04T23:53:13.661Z,101700.84
2023-03-04T23:55:44.305Z,101696.75
2023-03-04T23:58:14.744Z,101699.75
